Time;durP1;ratioP1;P1;durP2;ratioP2;P2;SDS_P1;SDS_P2;PMS_P1;PMS_P2;Temp;Humidity;BMP_temperature;BMP_pressure;BME280_temperature;BME280_humidity;BME280_pressure;Samples;Min_cycle;Max_cycle;Signal;HPM_P1;HPM_P2
2023/07/27 00:01:28;;;;;;;5.35;3.55;;;17.20;99.90;;;;;;5020882;28;20061;-81
2023/07/27 00:03:56;;;;;;;4.97;3.40;;;17.10;99.90;;;;;;5040308;28;20045;-82
2023/07/27 00:06:24;;;;;;;5.60;3.53;;;17.10;99.90;;;;;;5040800;28;20049;-84
2023/07/27 00:08:52;;;;;;;6.22;3.80;;;17.10;99.90;;;;;;5038089;28;20045;-82
2023/07/27 00:11:20;;;;;;;7.07;4.00;;;17.10;99.90;;;;;;5021931;28;20037;-82
2023/07/27 00:13:47;;;;;;;7.65;3.97;;;17.10;99.90;;;;;;5038880;28;20055;-82
2023/07/27 00:16:15;;;;;;;6.47;4.75;;;17.10;99.90;;;;;;5040320;28;20042;-82
2023/07/27 00:18:42;;;;;;;9.48;5.25;;;17.10;99.90;;;;;;5042798;28;20060;-84
2023/07/27 00:21:10;;;;;;;10.52;5.60;;;17.00;99.90;;;;;;5039787;28;20067;-83
2023/07/27 00:23:37;;;;;;;9.52;5.78;;;17.00;99.90;;;;;;5037975;28;20124;-82
2023/07/27 00:26:06;;;;;;;23.08;19.55;;;17.10;99.90;;;;;;5020323;28;20124;-81
2023/07/27 00:28:33;;;;;;;11.10;5.88;;;17.00;99.90;;;;;;5037411;28;20490;-83
2023/07/27 00:31:00;;;;;;;11.70;6.18;;;17.00;99.90;;;;;;5037677;28;20037;-82
2023/07/27 00:33:27;;;;;;;10.07;6.10;;;17.00;99.90;;;;;;5022896;28;20596;-83
2023/07/27 00:35:56;;;;;;;9.13;5.60;;;16.90;99.90;;;;;;5040684;28;20136;-83
2023/07/27 00:38:27;;;;;;;10.95;6.03;;;16.90;99.90;;;;;;5040503;28;20037;-83
2023/07/27 00:40:55;;;;;;;9.10;6.15;;;16.80;99.90;;;;;;5037431;28;20045;-83
2023/07/27 00:43:24;;;;;;;9.30;6.30;;;16.80;99.90;;;;;;5021276;28;20120;-84
2023/07/27 00:45:51;;;;;;;10.50;6.07;;;16.80;99.90;;;;;;5038776;28;20087;-83
2023/07/27 00:48:19;;;;;;;9.90;6.20;;;16.80;99.90;;;;;;5038483;28;20386;-83
2023/07/27 00:50:47;;;;;;;10.13;5.93;;;16.70;99.90;;;;;;5037715;28;20045;-84
2023/07/27 00:53:16;;;;;;;10.98;6.28;;;16.70;99.90;;;;;;5018696;28;20061;-82
2023/07/27 00:55:44;;;;;;;10.65;6.85;;;16.70;99.90;;;;;;5020941;28;20053;-81
2023/07/27 00:58:13;;;;;;;10.57;6.32;;;16.60;99.90;;;;;;5039292;28;20040;-82
2023/07/27 01:00:43;;;;;;;9.00;6.35;;;16.60;99.90;;;;;;5020381;28;20098;-83
2023/07/27 01:03:10;;;;;;;10.10;7.40;;;16.60;99.90;;;;;;5017303;28;20045;-83
2023/07/27 01:05:38;;;;;;;10.38;8.65;;;16.50;99.90;;;;;;5037143;28;20043;-82
2023/07/27 01:08:05;;;;;;;15.23;11.02;;;16.50;99.90;;;;;;5020621;28;20529;-83
2023/07/27 01:10:45;;;;;;;16.40;13.90;;;16.60;99.90;;;;;;5019293;28;20570;-82
2023/07/27 01:13:21;;;;;;;17.23;14.02;;;16.50;99.90;;;;;;5037938;28;20044;-83
2023/07/27 01:15:52;;;;;;;;;;;16.50;99.90;;;;;;5040870;28;20448;-85
2023/07/27 01:18:25;;;;;;;15.68;14.00;;;16.50;99.90;;;;;;5028004;28;19925;-83
2023/07/27 01:21:00;;;;;;;15.43;13.82;;;16.40;99.90;;;;;;5045051;28;20045;-82
2023/07/27 01:23:49;;;;;;;21.52;14.80;;;16.50;99.90;;;;;;5024070;28;20557;-82
2023/07/27 01:26:49;;;;;;;17.40;14.23;;;16.50;99.90;;;;;;5025873;28;20045;-83
2023/07/27 01:29:50;;;;;;;16.10;14.32;;;16.50;99.90;;;;;;5031638;28;20033;-82
2023/07/27 01:32:21;;;;;;;15.88;14.02;;;16.50;99.90;;;;;;5012417;28;20077;-84
2023/07/27 01:34:52;;;;;;;17.63;14.27;;;16.40;99.90;;;;;;5055728;28;20048;-83
2023/07/27 01:37:20;;;;;;;15.90;13.57;;;16.30;99.90;;;;;;5051405;28;20037;-82
2023/07/27 01:39:53;;;;;;;17.70;13.93;;;16.30;99.90;;;;;;5027655;28;20061;-84
2023/07/27 01:42:23;;;;;;;15.52;13.93;;;16.30;99.90;;;;;;5055547;28;20048;-83
2023/07/27 01:44:52;;;;;;;15.70;12.63;;;16.20;99.90;;;;;;5041946;28;20051;-83
2023/07/27 01:47:21;;;;;;;17.05;15.30;;;16.20;99.90;;;;;;5037812;28;20045;-83
2023/07/27 01:49:51;;;;;;;24.00;21.02;;;16.10;99.90;;;;;;5043231;28;20049;-82
2023/07/27 01:52:20;;;;;;;24.73;22.05;;;16.10;99.90;;;;;;5023688;28;20041;-83
2023/07/27 01:54:49;;;;;;;23.15;20.65;;;16.10;99.90;;;;;;5025558;28;20057;-84
2023/07/27 01:57:17;;;;;;;23.38;20.98;;;16.00;99.90;;;;;;5026309;28;20041;-82
2023/07/27 01:59:46;;;;;;;22.02;18.77;;;16.00;99.90;;;;;;5023423;28;20045;-82
2023/07/27 02:02:14;;;;;;;17.27;14.38;;;16.00;99.90;;;;;;5027347;28;20405;-83
2023/07/27 02:04:43;;;;;;;16.50;13.80;;;16.00;99.90;;;;;;5042155;28;20051;-82
2023/07/27 02:07:11;;;;;;;18.55;14.60;;;16.00;99.90;;;;;;5065700;28;20059;-83
2023/07/27 02:09:39;;;;;;;19.17;15.60;;;16.00;99.90;;;;;;5048161;28;20052;-81
2023/07/27 02:12:12;;;;;;;18.15;13.57;;;16.00;99.90;;;;;;5041856;28;20476;-85
2023/07/27 02:14:46;;;;;;;21.33;13.45;;;16.10;99.90;;;;;;5028246;28;20040;-81
2023/07/27 02:17:17;;;;;;;23.08;18.08;;;16.10;99.90;;;;;;5024924;28;20337;-83
2023/07/27 02:19:53;;;;;;;29.48;17.98;;;16.10;99.90;;;;;;5026742;28;20144;-83
2023/07/27 02:22:22;;;;;;;28.55;21.27;;;16.10;99.90;;;;;;5026716;28;20103;-84
2023/07/27 02:24:49;;;;;;;30.90;24.52;;;16.20;99.90;;;;;;5040259;28;20081;-83
2023/07/27 02:27:17;;;;;;;33.75;25.85;;;16.10;99.90;;;;;;5043069;28;20033;-82
2023/07/27 02:29:46;;;;;;;31.45;26.02;;;16.10;99.90;;;;;;5024214;28;20096;-82
2023/07/27 02:32:14;;;;;;;32.97;25.92;;;16.00;99.90;;;;;;5025553;28;20045;-84
2023/07/27 02:34:41;;;;;;;32.40;26.95;;;16.00;99.90;;;;;;5026563;28;20064;-81
2023/07/27 02:37:12;;;;;;;30.50;23.83;;;16.10;99.90;;;;;;5026163;28;20037;-83
2023/07/27 02:39:39;;;;;;;22.45;19.83;;;16.10;99.90;;;;;;5040003;28;20037;-83
2023/07/27 02:42:07;;;;;;;19.95;16.67;;;16.10;99.90;;;;;;5025116;28;20527;-84
2023/07/27 02:44:34;;;;;;;22.88;14.68;;;16.00;99.90;;;;;;5040075;28;20044;-83
2023/07/27 02:47:01;;;;;;;16.40;11.35;;;16.00;99.90;;;;;;5022444;28;20532;-83
2023/07/27 02:49:29;;;;;;;15.45;8.77;;;16.00;99.90;;;;;;5020693;28;20075;-82
2023/07/27 02:51:57;;;;;;;14.15;8.35;;;16.00;99.90;;;;;;5022347;28;20045;-85
2023/07/27 02:54:25;;;;;;;11.50;8.43;;;16.00;99.90;;;;;;5011327;28;20042;-84
2023/07/27 02:56:54;;;;;;;9.50;7.10;;;15.90;99.90;;;;;;5005036;28;20114;-82
2023/07/27 02:59:28;;;;;;;8.90;6.22;;;15.90;99.90;;;;;;5011090;28;20068;-83
2023/07/27 03:01:55;;;;;;;9.13;5.93;;;15.90;99.90;;;;;;5003072;28;20045;-83
2023/07/27 03:04:28;;;;;;;9.55;5.63;;;15.80;99.90;;;;;;5004014;28;20087;-83
2023/07/27 03:06:55;;;;;;;8.00;5.45;;;15.70;99.90;;;;;;5002160;28;20046;-82
2023/07/27 03:09:25;;;;;;;10.38;6.18;;;15.70;99.90;;;;;;5019082;28;20065;-82
2023/07/27 03:11:52;;;;;;;11.32;6.30;;;15.60;99.90;;;;;;5002360;28;20497;-83
2023/07/27 03:14:21;;;;;;;8.68;5.63;;;15.50;99.90;;;;;;5002130;28;20061;-83
2023/07/27 03:16:48;;;;;;;10.63;5.85;;;15.40;99.90;;;;;;5016276;28;20046;-83
2023/07/27 03:19:16;;;;;;;11.27;6.20;;;15.40;99.90;;;;;;5019240;28;20136;-83
2023/07/27 03:21:45;;;;;;;12.23;7.32;;;15.30;99.90;;;;;;5002769;28;20049;-85
2023/07/27 03:24:16;;;;;;;12.60;7.65;;;15.20;99.90;;;;;;5023285;28;20038;-87
2023/07/27 03:26:45;;;;;;;13.73;7.65;;;15.20;99.90;;;;;;5022431;28;20046;-83
2023/07/27 03:29:12;;;;;;;11.15;7.72;;;15.20;99.90;;;;;;5004060;28;20109;-82
2023/07/27 03:31:40;;;;;;;13.85;8.25;;;15.10;99.90;;;;;;5005128;28;20550;-82
2023/07/27 03:34:07;;;;;;;15.57;7.95;;;15.10;99.90;;;;;;5003384;28;20038;-81
2023/07/27 03:36:34;;;;;;;18.58;8.80;;;15.10;99.90;;;;;;5025986;28;20037;-83
2023/07/27 03:39:03;;;;;;;16.63;7.85;;;15.10;99.90;;;;;;5017920;28;20129;-83
2023/07/27 03:41:31;;;;;;;13.05;8.52;;;15.10;99.90;;;;;;5023827;28;20120;-82
2023/07/27 03:43:59;;;;;;;8.40;6.70;;;15.10;99.90;;;;;;5001213;28;20038;-83
2023/07/27 03:46:27;;;;;;;10.43;5.28;;;15.10;99.90;;;;;;4999250;28;20121;-84
2023/07/27 03:48:56;;;;;;;8.15;5.40;;;15.10;99.90;;;;;;5018607;28;20057;-83
2023/07/27 03:51:23;;;;;;;8.98;4.40;;;15.00;99.90;;;;;;5020043;28;20045;-82
2023/07/27 03:53:53;;;;;;;14.15;5.78;;;15.00;99.90;;;;;;5017300;28;20445;-83
2023/07/27 03:56:33;;;;;;;6.18;4.53;;;15.00;99.90;;;;;;5020173;28;20200;-84
2023/07/27 03:59:02;;;;;;;7.68;4.28;;;15.10;99.90;;;;;;5037577;28;20042;-84
2023/07/27 04:01:29;;;;;;;7.50;4.80;;;15.10;99.90;;;;;;5007309;28;20049;-84
2023/07/27 04:03:58;;;;;;;7.53;4.20;;;15.20;99.90;;;;;;5008497;28;20069;-82
2023/07/27 04:06:26;;;;;;;6.63;3.22;;;15.50;99.90;;;;;;5030678;28;20052;-83
2023/07/27 04:08:53;;;;;;;9.52;3.58;;;16.10;99.90;;;;;;5003634;28;20042;-83
2023/07/27 04:11:20;;;;;;;6.93;3.20;;;16.70;99.90;;;;;;5001880;28;20037;-82
2023/07/27 04:13:48;;;;;;;7.45;2.50;;;17.30;99.90;;;;;;5003638;28;20057;-82
2023/07/27 04:16:17;;;;;;;6.47;2.40;;;17.40;99.90;;;;;;5002838;28;20049;-84
2023/07/27 04:18:45;;;;;;;5.88;2.60;;;17.60;99.90;;;;;;5016988;28;20045;-86
2023/07/27 04:21:12;;;;;;;6.57;2.35;;;18.10;99.90;;;;;;5013564;28;20436;-84
2023/07/27 04:23:40;;;;;;;4.07;2.47;;;18.50;99.90;;;;;;5039556;28;20044;-84
2023/07/27 04:26:07;;;;;;;29.88;5.95;;;18.80;99.90;;;;;;5029207;28;20061;-82
2023/07/27 04:28:35;;;;;;;29.17;4.68;;;19.00;99.90;;;;;;5016739;28;20045;-83
2023/07/27 04:31:02;;;;;;;7.13;2.95;;;19.00;99.90;;;;;;5004670;28;20046;-84
2023/07/27 04:33:31;;;;;;;15.45;3.63;;;19.10;99.90;;;;;;5000927;28;20042;-84
2023/07/27 04:36:01;;;;;;;13.02;3.17;;;19.10;99.90;;;;;;5029222;28;20034;-82
2023/07/27 04:38:28;;;;;;;15.77;3.75;;;19.10;99.90;;;;;;5020685;28;20117;-82
2023/07/27 04:40:55;;;;;;;7.25;3.38;;;19.80;99.90;;;;;;5001076;28;20506;-84
2023/07/27 04:43:22;;;;;;;13.57;6.47;;;20.00;99.90;;;;;;5002094;28;20034;-83
2023/07/27 04:45:50;;;;;;;14.85;8.25;;;20.10;99.90;;;;;;5003021;28;20553;-83
2023/07/27 04:48:17;;;;;;;14.43;7.20;;;20.70;99.90;;;;;;5001311;28;20046;-85
2023/07/27 04:50:46;;;;;;;19.13;8.63;;;21.00;99.90;;;;;;5002461;28;20056;-82
2023/07/27 04:53:13;;;;;;;25.90;10.35;;;21.60;99.90;;;;;;5001537;28;20041;-84
2023/07/27 04:55:40;;;;;;;31.05;12.07;;;21.40;99.90;;;;;;5027780;28;20049;-84
2023/07/27 04:58:08;;;;;;;19.50;11.38;;;21.50;99.90;;;;;;5019868;28;20160;-82
2023/07/27 05:00:36;;;;;;;23.10;11.95;;;21.60;99.90;;;;;;5037686;28;20049;-84
2023/07/27 05:03:03;;;;;;;20.70;11.75;;;21.20;99.90;;;;;;5039049;28;20041;-84
2023/07/27 05:05:30;;;;;;;26.63;15.38;;;20.70;99.90;;;;;;5038172;28;20507;-84
2023/07/27 05:07:59;;;;;;;27.70;15.75;;;20.10;99.90;;;;;;5019162;28;20124;-81
2023/07/27 05:10:27;;;;;;;26.25;13.68;;;19.80;99.90;;;;;;5019074;28;20111;-83
2023/07/27 05:12:54;;;;;;;24.45;12.50;;;19.70;99.90;;;;;;5037738;28;20041;-82
2023/07/27 05:15:21;;;;;;;23.55;13.93;;;19.50;99.90;;;;;;5039882;28;20041;-84
2023/07/27 05:17:49;;;;;;;24.63;12.80;;;19.50;99.90;;;;;;5032690;28;20042;-83
2023/07/27 05:20:16;;;;;;;22.02;11.98;;;19.90;99.90;;;;;;5020172;28;20515;-82
2023/07/27 05:22:43;;;;;;;18.45;10.65;;;20.70;99.90;;;;;;5037288;28;20068;-83
2023/07/27 05:25:13;;;;;;;19.10;10.88;;;21.20;99.90;;;;;;5034425;28;20034;-83
2023/07/27 05:27:41;;;;;;;21.50;11.45;;;21.60;99.90;;;;;;5058111;28;20037;-81
2023/07/27 05:30:09;;;;;;;24.67;15.63;;;22.10;99.90;;;;;;5050681;28;20080;-83
2023/07/27 05:32:38;;;;;;;15.65;10.23;;;23.00;99.90;;;;;;5020152;28;20057;-84
2023/07/27 05:35:05;;;;;;;15.70;10.20;;;23.60;99.90;;;;;;5020813;28;20050;-84
2023/07/27 05:37:33;;;;;;;14.48;8.27;;;24.10;99.90;;;;;;5025725;28;20492;-84
2023/07/27 05:40:00;;;;;;;12.57;8.40;;;23.80;99.90;;;;;;5031444;28;20153;-85
2023/07/27 05:42:29;;;;;;;9.27;6.43;;;24.00;99.90;;;;;;5046665;28;20045;-84
2023/07/27 05:44:56;;;;;;;8.00;4.57;;;24.20;99.90;;;;;;5029274;28;20092;-83
2023/07/27 05:47:24;;;;;;;7.28;4.70;;;24.30;99.90;;;;;;5024242;28;20095;-84
2023/07/27 05:49:51;;;;;;;11.88;4.63;;;24.40;99.90;;;;;;5024660;28;20092;-83
2023/07/27 05:52:18;;;;;;;7.05;4.10;;;24.20;99.90;;;;;;5036767;28;20128;-84
2023/07/27 05:54:46;;;;;;;7.85;3.58;;;24.00;99.90;;;;;;5038225;28;20335;-85
2023/07/27 05:57:13;;;;;;;4.70;3.90;;;23.70;99.90;;;;;;5039977;28;20038;-86
2023/07/27 05:59:42;;;;;;;10.90;3.70;;;23.40;99.90;;;;;;5036972;28;20044;-86
2023/07/27 06:02:09;;;;;;;5.65;3.53;;;23.20;99.90;;;;;;5041465;28;20182;-85
2023/07/27 06:04:36;;;;;;;6.80;4.78;;;22.90;99.90;;;;;;5044111;28;20527;-85
2023/07/27 06:07:05;;;;;;;6.20;4.00;;;22.50;99.90;;;;;;5023305;28;20057;-85
2023/07/27 06:09:32;;;;;;;8.10;4.72;;;22.20;99.90;;;;;;5040505;28;20441;-83
2023/07/27 06:12:00;;;;;;;5.68;4.00;;;21.80;99.90;;;;;;5038931;28;20040;-85
2023/07/27 06:14:27;;;;;;;10.05;4.10;;;21.60;99.90;;;;;;5022753;28;20037;-86
2023/07/27 06:16:56;;;;;;;6.20;4.65;;;21.60;99.90;;;;;;5031718;28;20045;-84
2023/07/27 06:19:23;;;;;;;9.40;4.25;;;21.70;99.90;;;;;;5022456;28;20045;-86
2023/07/27 06:21:50;;;;;;;9.60;6.57;;;21.70;99.90;;;;;;5004215;28;20072;-86
2023/07/27 06:24:18;;;;;;;7.68;5.07;;;22.00;99.90;;;;;;5042410;28;20037;-84
2023/07/27 06:26:45;;;;;;;7.40;3.33;;;22.10;99.90;;;;;;5041347;28;20500;-84
2023/07/27 06:29:13;;;;;;;8.35;3.15;;;22.00;99.90;;;;;;5042860;28;20050;-83
2023/07/27 06:31:40;;;;;;;7.07;4.53;;;21.60;99.90;;;;;;5028125;28;20048;-83
2023/07/27 06:34:09;;;;;;;7.90;4.07;;;21.60;99.90;;;;;;5040537;28;20037;-82
2023/07/27 06:36:36;;;;;;;8.32;4.50;;;21.60;99.90;;;;;;5045925;28;20125;-85
2023/07/27 06:39:04;;;;;;;8.75;4.40;;;21.90;99.90;;;;;;5022616;28;20490;-84
2023/07/27 06:41:32;;;;;;;13.95;4.90;;;22.20;99.90;;;;;;5037728;28;20041;-85
2023/07/27 06:44:00;;;;;;;7.90;4.72;;;22.20;99.90;;;;;;5041409;28;20041;-85
2023/07/27 06:46:28;;;;;;;8.70;4.55;;;22.30;99.90;;;;;;5045849;28;20099;-85
2023/07/27 06:48:55;;;;;;;8.20;5.28;;;22.30;99.90;;;;;;5023980;28;20045;-85
2023/07/27 06:51:24;;;;;;;10.88;7.18;;;22.10;99.90;;;;;;5020284;28;20464;-83
2023/07/27 06:53:52;;;;;;;10.93;6.88;;;21.90;99.90;;;;;;5022165;28;20045;-83
2023/07/27 06:56:19;;;;;;;10.00;6.28;;;21.80;99.90;;;;;;5040721;28;20038;-84
2023/07/27 06:58:47;;;;;;;8.98;5.32;;;21.90;99.90;;;;;;5026297;28;20209;-85
2023/07/27 07:01:14;;;;;;;8.88;5.00;;;22.10;99.90;;;;;;5029609;28;20033;-84
2023/07/27 07:03:42;;;;;;;9.10;5.60;;;22.20;99.90;;;;;;5036138;28;20044;-85
2023/07/27 07:06:10;;;;;;;9.77;5.63;;;22.50;99.90;;;;;;5038999;28;20048;-83
2023/07/27 07:08:40;;;;;;;6.13;3.42;;;22.40;99.90;;;;;;5022535;28;20048;-84
2023/07/27 07:11:08;;;;;;;12.75;5.53;;;22.20;99.90;;;;;;5038999;28;20121;-84
2023/07/27 07:13:36;;;;;;;7.22;4.18;;;22.20;99.90;;;;;;5026739;28;20110;-84
2023/07/27 07:16:03;;;;;;;6.50;3.40;;;22.20;99.90;;;;;;5042004;28;20505;-82
2023/07/27 07:18:31;;;;;;;5.95;3.25;;;22.20;99.90;;;;;;5043970;28;20033;-84
2023/07/27 07:20:58;;;;;;;7.18;3.85;;;22.10;99.90;;;;;;5021945;28;20606;-84
2023/07/27 07:23:26;;;;;;;7.28;3.97;;;22.30;99.90;;;;;;5042035;28;20508;-84
2023/07/27 07:25:58;;;;;;;4.68;2.75;;;22.30;99.90;;;;;;5026867;28;20400;-85
2023/07/27 07:28:25;;;;;;;4.20;2.08;;;22.30;99.90;;;;;;5024587;28;20041;-85
2023/07/27 07:30:54;;;;;;;4.18;2.13;;;22.00;99.90;;;;;;5042278;28;20125;-84
2023/07/27 07:33:21;;;;;;;5.93;1.90;;;21.80;99.90;;;;;;5041421;28;20045;-83
2023/07/27 07:35:49;;;;;;;4.82;2.17;;;21.70;99.90;;;;;;5025470;28;20064;-83
2023/07/27 07:38:16;;;;;;;4.80;2.22;;;21.80;99.90;;;;;;5022928;28;20040;-85
2023/07/27 07:40:46;;;;;;;4.55;2.97;;;22.10;99.90;;;;;;5025058;28;20045;-84
2023/07/27 07:43:15;;;;;;;6.75;2.92;;;22.20;99.90;;;;;;5022736;28;20040;-83
2023/07/27 07:45:43;;;;;;;5.80;3.72;;;22.20;99.90;;;;;;5023731;28;20133;-84
2023/07/27 07:48:10;;;;;;;8.50;2.50;;;22.20;99.90;;;;;;5027336;28;20055;-83
2023/07/27 07:50:39;;;;;;;3.03;1.77;;;22.40;99.90;;;;;;5039497;28;20033;-82
2023/07/27 07:53:07;;;;;;;4.82;2.42;;;22.60;99.90;;;;;;5027786;28;20096;-85
2023/07/27 07:55:36;;;;;;;5.63;2.20;;;22.50;99.90;;;;;;5024115;28;20049;-83
2023/07/27 07:58:04;;;;;;;4.55;2.65;;;22.20;99.90;;;;;;5022375;28;20055;-84
2023/07/27 08:00:33;;;;;;;4.05;2.03;;;21.60;99.90;;;;;;5017885;28;20439;-83
2023/07/27 08:03:00;;;;;;;4.55;1.80;;;21.50;99.90;;;;;;5021345;28;20516;-84
2023/07/27 08:05:28;;;;;;;9.65;3.30;;;21.50;99.90;;;;;;5024288;28;20056;-84
2023/07/27 08:07:55;;;;;;;4.68;2.80;;;21.70;99.90;;;;;;5023527;28;20044;-83
2023/07/27 08:10:23;;;;;;;8.27;3.88;;;21.80;99.90;;;;;;5023791;28;20030;-84
2023/07/27 08:12:53;;;;;;;4.93;3.13;;;21.70;99.90;;;;;;5029320;28;20051;-83
2023/07/27 08:15:20;;;;;;;4.90;2.35;;;21.80;99.90;;;;;;5044076;28;20041;-85
2023/07/27 08:17:50;;;;;;;3.72;1.95;;;22.10;99.90;;;;;;5020521;28;20038;-86
2023/07/27 08:20:17;;;;;;;3.17;1.73;;;22.40;99.90;;;;;;5020097;28;20045;-85
2023/07/27 08:22:45;;;;;;;9.48;6.18;;;22.50;99.90;;;;;;5023778;28;20044;-84
2023/07/27 08:25:14;;;;;;;6.55;4.20;;;22.70;99.90;;;;;;5043958;28;20040;-84
2023/07/27 08:27:42;;;;;;;5.50;2.50;;;22.80;99.90;;;;;;5021399;28;20408;-84
2023/07/27 08:30:10;;;;;;;3.30;1.70;;;22.80;99.90;;;;;;5018354;28;20042;-85
2023/07/27 08:32:38;;;;;;;3.75;1.90;;;22.70;99.90;;;;;;5022315;28;20037;-84
2023/07/27 08:35:14;;;;;;;5.38;2.53;;;22.70;99.90;;;;;;5035134;28;20065;-85
2023/07/27 08:37:42;;;;;;;6.50;3.47;;;23.00;99.90;;;;;;5028458;28;20111;-83
2023/07/27 08:40:10;;;;;;;6.13;2.50;;;23.40;99.90;;;;;;5041024;28;20025;-84
2023/07/27 08:42:38;;;;;;;4.68;2.35;;;23.50;99.90;;;;;;5053917;28;20052;-85
2023/07/27 08:45:06;;;;;;;4.18;2.50;;;23.20;99.90;;;;;;5047374;28;20060;-85
2023/07/27 08:47:35;;;;;;;4.00;1.80;;;23.00;99.90;;;;;;5047847;28;20068;-84
2023/07/27 08:50:04;;;;;;;4.88;2.38;;;22.80;99.90;;;;;;5042697;28;20037;-86
2023/07/27 08:52:33;;;;;;;6.47;2.85;;;22.90;99.90;;;;;;5021254;28;20397;-84
2023/07/27 08:55:01;;;;;;;4.75;2.00;;;23.00;99.90;;;;;;5022988;28;20076;-86
2023/07/27 08:57:29;;;;;;;3.28;1.75;;;22.90;99.90;;;;;;5026108;28;20075;-86
2023/07/27 08:59:57;;;;;;;5.90;2.17;;;22.90;99.90;;;;;;5025839;28;20053;-85
2023/07/27 09:02:29;;;;;;;4.82;2.67;;;23.10;99.90;;;;;;5026049;28;20041;-83
2023/07/27 09:04:57;;;;;;;5.45;3.13;;;23.10;99.90;;;;;;5029874;28;20107;-85
2023/07/27 09:07:24;;;;;;;5.88;2.95;;;23.50;99.90;;;;;;5024311;28;20516;-86
2023/07/27 09:09:54;;;;;;;3.60;2.30;;;23.70;99.90;;;;;;5024677;28;20558;-83
2023/07/27 09:12:23;;;;;;;3.30;1.80;;;23.90;99.90;;;;;;5023179;28;20049;-83
2023/07/27 09:14:51;;;;;;;6.53;4.15;;;24.10;99.90;;;;;;5028251;28;20042;-85
2023/07/27 09:17:18;;;;;;;5.65;2.58;;;24.50;99.90;;;;;;5034267;28;20038;-85
2023/07/27 09:19:46;;;;;;;6.20;3.05;;;24.30;99.90;;;;;;5026988;28;20044;-85
2023/07/27 09:22:14;;;;;;;6.60;3.72;;;24.10;99.90;;;;;;5057709;28;20061;-85
2023/07/27 09:24:44;;;;;;;11.32;5.55;;;24.00;99.90;;;;;;5047011;28;20047;-84
2023/07/27 09:27:15;;;;;;;13.00;9.02;;;24.00;99.90;;;;;;5030531;28;20049;-85
2023/07/27 09:29:44;;;;;;;12.07;7.57;;;24.00;99.90;;;;;;5025908;28;20111;-84
2023/07/27 09:32:13;;;;;;;8.73;3.60;;;24.20;99.90;;;;;;5024292;28;20054;-85
2023/07/27 09:34:42;;;;;;;7.60;4.00;;;24.00;99.90;;;;;;5029960;28;20061;-85
2023/07/27 09:37:10;;;;;;;8.13;3.63;;;23.90;99.90;;;;;;5040010;28;20497;-84
2023/07/27 09:39:42;;;;;;;5.53;3.85;;;23.90;99.90;;;;;;5024923;28;20049;-85
2023/07/27 09:42:14;;;;;;;17.15;10.18;;;24.00;99.90;;;;;;5059321;28;20077;-84
2023/07/27 09:44:48;;;;;;;7.70;5.63;;;24.10;99.90;;;;;;5043972;28;20076;-83
2023/07/27 09:47:20;;;;;;;6.97;3.10;;;24.40;99.90;;;;;;5039132;28;20307;-84
2023/07/27 09:49:56;;;;;;;9.43;4.53;;;24.10;99.90;;;;;;5026311;28;20104;-83
2023/07/27 09:52:24;;;;;;;9.95;4.47;;;24.00;99.90;;;;;;5003808;28;20100;-84
2023/07/27 09:54:55;;;;;;;6.43;3.72;;;24.00;99.90;;;;;;5004338;28;20050;-86
2023/07/27 09:57:24;;;;;;;10.77;6.95;;;23.80;99.90;;;;;;5016624;28;20617;-84
2023/07/27 09:59:52;;;;;;;10.23;4.55;;;23.80;99.90;;;;;;5033874;28;20048;-85
2023/07/27 10:02:21;;;;;;;8.75;5.63;;;23.80;99.90;;;;;;5017000;28;20076;-85
2023/07/27 10:04:50;;;;;;;12.40;6.28;;;24.20;99.90;;;;;;5007215;28;20095;-86
2023/07/27 10:07:18;;;;;;;5.85;2.70;;;24.30;99.90;;;;;;5028565;28;20042;-86
2023/07/27 10:09:46;;;;;;;5.47;2.40;;;24.30;99.90;;;;;;5030229;28;20049;-86
2023/07/27 10:12:29;;;;;;;6.00;2.70;;;24.30;99.90;;;;;;5030228;28;20508;-86
2023/07/27 10:15:20;;;;;;;4.35;2.30;;;24.20;99.90;;;;;;5029696;28;20464;-86
2023/07/27 10:17:51;;;;;;;3.72;2.00;;;24.30;99.90;;;;;;5007373;28;20038;-85
2023/07/27 10:20:25;;;;;;;3.10;1.67;;;24.50;99.90;;;;;;5017368;28;20133;-85
2023/07/27 10:22:55;;;;;;;4.22;2.20;;;24.30;99.90;;;;;;5028095;28;20041;-84
2023/07/27 10:25:28;;;;;;;4.88;3.63;;;24.20;99.90;;;;;;5020716;28;20034;-85
2023/07/27 10:27:58;;;;;;;6.60;4.30;;;24.20;99.90;;;;;;5048877;28;20554;-84
2023/07/27 10:30:26;;;;;;;4.40;2.78;;;24.30;99.90;;;;;;5026689;28;20409;-85
2023/07/27 10:33:15;;;;;;;6.53;2.05;;;24.20;99.90;;;;;;5019477;28;20045;-84
2023/07/27 10:36:02;;;;;;;4.80;2.40;;;24.30;99.90;;;;;;5034812;28;20049;-85
2023/07/27 10:38:33;;;;;;;4.55;2.78;;;24.40;99.90;;;;;;5034437;28;20773;-86
2023/07/27 10:41:13;;;;;;;6.72;3.00;;;24.50;99.90;;;;;;5030945;28;20043;-85
2023/07/27 10:44:21;;;;;;;3.38;2.25;;;24.80;99.90;;;;;;5029593;28;20668;-85
2023/07/27 10:46:56;;;;;;;6.90;3.00;;;24.90;99.90;;;;;;5005469;28;20060;-85
2023/07/27 10:49:23;;;;;;;5.10;3.33;;;24.80;99.90;;;;;;5025145;28;20049;-86
2023/07/27 10:51:52;;;;;;;8.60;2.75;;;24.60;99.90;;;;;;5039908;28;20053;-85
2023/07/27 10:54:20;;;;;;;6.30;2.38;;;24.50;99.90;;;;;;5066693;28;20032;-86
2023/07/27 10:56:49;;;;;;;5.50;2.83;;;24.40;99.90;;;;;;5057779;28;20060;-85
2023/07/27 10:59:16;;;;;;;4.03;1.98;;;24.40;99.90;;;;;;5066186;28;20052;-84
2023/07/27 11:01:49;;;;;;;8.15;4.63;;;24.40;99.90;;;;;;5031387;28;20049;-85
2023/07/27 11:04:18;;;;;;;4.40;2.78;;;24.40;99.90;;;;;;5025443;28;20068;-85
2023/07/27 11:06:46;;;;;;;5.13;2.83;;;24.70;99.90;;;;;;5023908;28;20419;-84
2023/07/27 11:09:16;;;;;;;3.13;2.00;;;24.70;99.90;;;;;;5030328;28;20097;-83
2023/07/27 11:11:44;;;;;;;5.85;2.10;;;24.70;99.90;;;;;;5036118;28;20045;-85
2023/07/27 11:14:11;;;;;;;4.90;2.00;;;24.50;99.90;;;;;;5060208;28;20045;-84
2023/07/27 11:16:39;;;;;;;3.92;2.65;;;24.40;99.90;;;;;;5043936;28;20037;-84
2023/07/27 11:19:10;;;;;;;3.17;1.45;;;24.20;99.90;;;;;;5061459;28;20029;-84
2023/07/27 11:21:41;;;;;;;2.10;1.30;;;23.90;99.90;;;;;;5058216;28;20536;-85
2023/07/27 11:24:10;;;;;;;2.85;1.40;;;23.50;99.90;;;;;;5041044;28;20057;-86
2023/07/27 11:26:38;;;;;;;5.45;1.20;;;23.50;99.90;;;;;;5043826;28;20044;-85
2023/07/27 11:29:06;;;;;;;2.65;1.60;;;23.30;99.90;;;;;;5037144;28;20131;-85
2023/07/27 11:31:34;;;;;;;5.97;2.55;;;23.20;99.90;;;;;;5025875;28;20472;-84
2023/07/27 11:34:03;;;;;;;5.88;2.47;;;23.00;99.90;;;;;;5024977;28;20041;-86
2023/07/27 11:36:34;;;;;;;3.45;2.00;;;23.10;99.90;;;;;;5026754;28;20045;-84
2023/07/27 11:39:02;;;;;;;4.78;1.92;;;23.20;99.90;;;;;;5040710;28;20045;-85
2023/07/27 11:41:32;;;;;;;7.88;3.20;;;23.30;99.90;;;;;;5024015;28;20034;-83
2023/07/27 11:44:00;;;;;;;3.13;2.03;;;23.50;99.90;;;;;;5023916;28;20077;-86
2023/07/27 11:46:39;;;;;;;6.55;3.65;;;23.50;99.90;;;;;;5042881;28;20094;-85
2023/07/27 11:49:08;;;;;;;5.68;3.28;;;23.40;99.90;;;;;;5030467;28;20064;-85
2023/07/27 11:51:40;;;;;;;6.43;2.65;;;23.60;99.90;;;;;;5026466;28;20045;-83
2023/07/27 11:54:08;;;;;;;5.00;2.92;;;23.90;99.90;;;;;;5028628;28;20044;-84
2023/07/27 11:56:35;;;;;;;4.68;3.15;;;23.90;99.90;;;;;;5041362;28;20436;-84
2023/07/27 11:59:04;;;;;;;6.45;3.33;;;23.90;99.90;;;;;;5045059;28;20041;-83
2023/07/27 12:01:34;;;;;;;5.32;3.47;;;23.90;99.90;;;;;;5036402;28;20052;-84
2023/07/27 12:04:01;;;;;;;7.18;4.07;;;24.00;99.90;;;;;;5027784;28;20075;-85
2023/07/27 12:06:29;;;;;;;4.07;2.08;;;24.10;99.90;;;;;;5025664;28;20109;-83
2023/07/27 12:09:00;;;;;;;3.58;1.95;;;24.10;99.90;;;;;;5041259;28;20539;-83
2023/07/27 12:11:28;;;;;;;3.90;2.20;;;24.10;99.90;;;;;;5021554;28;20095;-84
2023/07/27 12:14:03;;;;;;;8.63;5.32;;;24.10;99.90;;;;;;5023789;28;20048;-82
2023/07/27 12:16:37;;;;;;;6.23;4.33;;;24.10;99.90;;;;;;5021286;28;20041;-84
2023/07/27 12:19:06;;;;;;;4.95;3.38;;;24.30;99.90;;;;;;5040278;28;20136;-81
2023/07/27 12:21:33;;;;;;;10.82;6.35;;;24.30;99.90;;;;;;5026684;28;20052;-82
2023/07/27 12:24:03;;;;;;;6.72;3.65;;;24.50;99.90;;;;;;5024476;28;20096;-84
2023/07/27 12:26:31;;;;;;;5.95;4.72;;;24.40;99.90;;;;;;5018628;28;20084;-86
2023/07/27 12:28:59;;;;;;;3.85;2.78;;;24.50;99.90;;;;;;5014055;28;20056;-86
2023/07/27 12:31:27;;;;;;;6.95;2.00;;;24.50;99.90;;;;;;5020648;28;20400;-77
2023/07/27 12:33:55;;;;;;;6.95;4.88;;;24.50;99.90;;;;;;5043247;28;20030;-76
2023/07/27 12:36:22;;;;;;;6.13;2.33;;;24.30;99.90;;;;;;5040407;28;20052;-77
2023/07/27 12:38:49;;;;;;;12.10;8.93;;;24.40;99.90;;;;;;5037878;28;20076;-77
2023/07/27 12:41:20;;;;;;;5.03;3.35;;;24.30;99.90;;;;;;5039427;28;20045;-79
2023/07/27 12:43:47;;;;;;;4.18;1.90;;;24.30;99.90;;;;;;5044581;28;20052;-76
2023/07/27 12:46:15;;;;;;;19.23;4.03;;;24.40;99.90;;;;;;5042607;28;20263;-78
2023/07/27 12:48:43;;;;;;;4.22;2.47;;;24.60;99.90;;;;;;5041000;28;20104;-78
2023/07/27 12:51:10;;;;;;;5.05;2.63;;;24.80;99.90;;;;;;5043541;28;20041;-78